sensor_id;sensor_type;location;lat;lon;timestamp;pressure;altitude;pressure_sealevel;temperature;humidity
3697;BME280;60662;48.810;8.872;2022-11-20T11:04:40;96125.75;;;5.85;92.46
3697;BME280;60662;48.810;8.872;2022-11-20T11:05:50;96130.53;;;5.71;91.68
3697;BME280;60662;48.810;8.872;2022-11-20T11:07:01;96126.00;;;6.04;89.91
3697;BME280;60662;48.810;8.872;2022-11-20T11:08:18;96130.38;;;7.19;86.79
3697;BME280;60662;48.810;8.872;2022-11-20T11:09:28;96132.13;;;8.25;83.12
3697;BME280;60662;48.810;8.872;2022-11-20T11:10:57;96122.13;;;7.95;79.67
3697;BME280;60662;48.810;8.872;2022-11-20T11:12:00;96125.06;;;7.00;82.44
3697;BME280;60662;48.810;8.872;2022-11-20T11:13:19;96111.66;;;6.89;83.97
3697;BME280;60662;48.810;8.872;2022-11-20T11:14:21;96106.16;;;6.97;82.91
3697;BME280;60662;48.810;8.872;2022-11-20T11:15:37;96119.47;;;6.42;84.54
3697;BME280;60662;48.810;8.872;2022-11-20T11:16:50;96108.03;;;6.24;84.18
3697;BME280;60662;48.810;8.872;2022-11-20T11:17:52;96111.41;;;6.02;85.42
3697;BME280;60662;48.810;8.872;2022-11-20T11:19:10;96092.34;;;5.78;86.77
3697;BME280;60662;48.810;8.872;2022-11-20T11:20:18;96105.56;;;5.68;86.07
3697;BME280;60662;48.810;8.872;2022-11-20T11:21:22;96111.88;;;5.61;87.17
3697;BME280;60662;48.810;8.872;2022-11-20T11:22:25;96095.34;;;5.65;87.42
3697;BME280;60662;48.810;8.872;2022-11-20T11:23:30;96105.53;;;5.70;87.75
3697;BME280;60662;48.810;8.872;2022-11-20T11:24:33;96093.75;;;5.61;87.47
3697;BME280;60662;48.810;8.872;2022-11-20T11:30:15;96095.38;;;7.08;83.77
3697;BME280;60662;48.810;8.872;2022-11-20T11:31:29;96080.31;;;8.40;79.94
3697;BME280;60662;48.810;8.872;2022-11-20T11:32:31;96097.97;;;8.12;77.54
3697;BME280;60662;48.810;8.872;2022-11-20T11:33:32;96079.66;;;7.33;78.43
3697;BME280;60662;48.810;8.872;2022-11-20T11:34:37;96102.38;;;8.71;74.85
3697;BME280;60662;48.810;8.872;2022-11-20T11:35:45;96078.19;;;9.94;72.50
3697;BME280;60662;48.810;8.872;2022-11-20T11:36:56;96086.31;;;10.06;70.15
3697;BME280;60662;48.810;8.872;2022-11-20T11:38:10;96074.69;;;9.60;70.99
3697;BME280;60662;48.810;8.872;2022-11-20T11:39:18;96074.81;;;9.75;70.81
3697;BME280;60662;48.810;8.872;2022-11-20T11:40:22;96060.13;;;9.02;73.56
3697;BME280;60662;48.810;8.872;2022-11-20T11:41:31;96073.75;;;10.95;69.56
3697;BME280;60662;48.810;8.872;2022-11-20T11:42:34;96060.06;;;11.38;66.86
3697;BME280;60662;48.810;8.872;2022-11-20T11:43:36;96067.41;;;11.32;65.76
3697;BME280;60662;48.810;8.872;2022-11-20T11:44:59;96069.38;;;12.03;64.07
3697;BME280;60662;48.810;8.872;2022-11-20T11:48:55;96066.09;;;11.55;64.36
3697;BME280;60662;48.810;8.872;2022-11-20T11:51:11;96060.84;;;11.24;62.97
3697;BME280;60662;48.810;8.872;2022-11-20T11:52:17;96064.56;;;11.81;62.64
3697;BME280;60662;48.810;8.872;2022-11-20T11:53:21;96045.69;;;11.76;62.09
3697;BME280;60662;48.810;8.872;2022-11-20T11:54:30;96041.72;;;11.54;61.64
3697;BME280;60662;48.810;8.872;2022-11-20T11:55:37;96045.88;;;12.18;62.08
3697;BME280;60662;48.810;8.872;2022-11-20T11:56:41;96042.22;;;11.75;60.80
3697;BME280;60662;48.810;8.872;2022-11-20T11:57:59;96034.50;;;10.49;62.35
3697;BME280;60662;48.810;8.872;2022-11-20T11:59:06;96059.00;;;10.62;62.27
3697;BME280;60662;48.810;8.872;2022-11-20T12:00:15;96040.88;;;10.43;63.00
3697;BME280;60662;48.810;8.872;2022-11-20T12:01:28;96058.47;;;9.89;64.51
3697;BME280;60662;48.810;8.872;2022-11-20T12:02:53;96052.91;;;9.79;65.80
3697;BME280;60662;48.810;8.872;2022-11-20T12:04:05;96055.41;;;9.28;65.83
3697;BME280;60662;48.810;8.872;2022-11-20T12:05:18;96063.38;;;9.95;65.08
3697;BME280;60662;48.810;8.872;2022-11-20T12:06:20;96049.47;;;10.12;64.88
3697;BME280;60662;48.810;8.872;2022-11-20T12:07:45;96059.06;;;10.11;63.70
3697;BME280;60662;48.810;8.872;2022-11-20T12:08:53;96055.63;;;10.11;63.51
3697;BME280;60662;48.810;8.872;2022-11-20T12:09:57;96060.94;;;10.25;63.71
3697;BME280;60662;48.810;8.872;2022-11-20T12:11:21;96055.66;;;10.60;63.15
3697;BME280;60662;48.810;8.872;2022-11-20T12:12:31;96061.06;;;10.89;62.82
3697;BME280;60662;48.810;8.872;2022-11-20T12:13:58;96053.72;;;10.80;62.02
3697;BME280;60662;48.810;8.872;2022-11-20T12:15:09;96051.31;;;11.23;60.94
3697;BME280;60662;48.810;8.872;2022-11-20T12:16:14;96055.31;;;10.83;60.75
3697;BME280;60662;48.810;8.872;2022-11-20T12:17:16;96035.53;;;10.78;61.18
3697;BME280;60662;48.810;8.872;2022-11-20T12:18:21;96057.53;;;11.67;59.92
3697;BME280;60662;48.810;8.872;2022-11-20T12:19:23;96055.41;;;10.81;60.58
3697;BME280;60662;48.810;8.872;2022-11-20T12:20:41;96036.25;;;10.49;61.52
3697;BME280;60662;48.810;8.872;2022-11-20T12:22:56;96050.94;;;10.67;62.33
3697;BME280;60662;48.810;8.872;2022-11-20T12:24:14;96052.72;;;10.67;61.60
3697;BME280;60662;48.810;8.872;2022-11-20T12:25:32;96040.59;;;9.99;63.07
3697;BME280;60662;48.810;8.872;2022-11-20T12:29:05;96037.84;;;8.96;66.00
3697;BME280;60662;48.810;8.872;2022-11-20T12:30:15;96042.69;;;9.92;63.52
3697;BME280;60662;48.810;8.872;2022-11-20T12:31:43;96041.75;;;10.26;62.50
3697;BME280;60662;48.810;8.872;2022-11-20T12:37:20;96039.53;;;9.15;66.60
3697;BME280;60662;48.810;8.872;2022-11-20T12:39:50;96029.44;;;9.79;63.72
3697;BME280;60662;48.810;8.872;2022-11-20T12:42:42;96043.91;;;8.40;68.23
3697;BME280;60662;48.810;8.872;2022-11-20T12:46:18;96047.22;;;8.04;70.31
3697;BME280;60662;48.810;8.872;2022-11-20T12:51:38;96030.13;;;7.58;69.13
3697;BME280;60662;48.810;8.872;2022-11-20T12:52:57;96039.59;;;7.39;69.64
3697;BME280;60662;48.810;8.872;2022-11-20T12:54:33;96048.31;;;7.58;69.15
3697;BME280;60662;48.810;8.872;2022-11-20T13:00:25;96029.84;;;9.36;63.10
3697;BME280;60662;48.810;8.872;2022-11-20T13:04:29;96032.97;;;9.60;62.45
3697;BME280;60662;48.810;8.872;2022-11-20T13:07:10;96029.72;;;8.47;63.67
3697;BME280;60662;48.810;8.872;2022-11-20T13:08:37;96030.28;;;7.74;67.66
3697;BME280;60662;48.810;8.872;2022-11-20T13:09:45;96045.47;;;7.64;68.43
3697;BME280;60662;48.810;8.872;2022-11-20T13:13:51;96034.84;;;7.48;67.80
3697;BME280;60662;48.810;8.872;2022-11-20T13:16:20;96037.47;;;7.06;68.82
3697;BME280;60662;48.810;8.872;2022-11-20T13:17:30;96032.44;;;7.85;67.81
3697;BME280;60662;48.810;8.872;2022-11-20T13:18:38;96037.00;;;8.20;66.11
3697;BME280;60662;48.810;8.872;2022-11-20T13:19:48;96032.63;;;8.20;66.26
3697;BME280;60662;48.810;8.872;2022-11-20T13:20:51;96016.72;;;7.67;67.62
3697;BME280;60662;48.810;8.872;2022-11-20T13:21:52;96018.38;;;7.29;68.06
3697;BME280;60662;48.810;8.872;2022-11-20T13:22:55;96038.34;;;7.05;68.29
3697;BME280;60662;48.810;8.872;2022-11-20T13:24:20;96014.97;;;6.84;69.38
3697;BME280;60662;48.810;8.872;2022-11-20T13:25:35;96023.47;;;6.88;70.15
3697;BME280;60662;48.810;8.872;2022-11-20T13:26:37;96022.38;;;6.71;70.64
3697;BME280;60662;48.810;8.872;2022-11-20T13:27:47;96026.19;;;6.62;71.95
3697;BME280;60662;48.810;8.872;2022-11-20T13:29:21;96030.22;;;6.47;71.75
3697;BME280;60662;48.810;8.872;2022-11-20T13:30:25;96025.31;;;6.40;72.30
3697;BME280;60662;48.810;8.872;2022-11-20T13:31:34;96027.84;;;6.41;72.43
3697;BME280;60662;48.810;8.872;2022-11-20T13:32:36;96025.16;;;6.20;71.73
3697;BME280;60662;48.810;8.872;2022-11-20T13:33:52;96025.09;;;6.22;72.67
3697;BME280;60662;48.810;8.872;2022-11-20T13:34:58;96027.00;;;6.18;72.98
3697;BME280;60662;48.810;8.872;2022-11-20T13:36:05;96028.72;;;6.18;73.58
3697;BME280;60662;48.810;8.872;2022-11-20T13:37:33;96020.19;;;6.14;73.05
3697;BME280;60662;48.810;8.872;2022-11-20T13:38:50;95997.47;;;5.97;74.14
3697;BME280;60662;48.810;8.872;2022-11-20T13:39:52;96026.25;;;6.15;74.31
3697;BME280;60662;48.810;8.872;2022-11-20T13:40:56;96023.53;;;6.18;74.58
3697;BME280;60662;48.810;8.872;2022-11-20T13:42:18;96029.56;;;6.18;74.65
3697;BME280;60662;48.810;8.872;2022-11-20T13:43:44;96013.06;;;6.21;74.82
3697;BME280;60662;48.810;8.872;2022-11-20T13:44:54;96012.03;;;6.25;74.74
3697;BME280;60662;48.810;8.872;2022-11-20T13:47:02;96015.13;;;6.35;74.66
3697;BME280;60662;48.810;8.872;2022-11-20T13:48:20;96017.47;;;6.41;75.08
3697;BME280;60662;48.810;8.872;2022-11-20T13:49:52;96023.75;;;6.58;75.29
3697;BME280;60662;48.810;8.872;2022-11-20T13:52:04;96024.91;;;6.73;75.75
3697;BME280;60662;48.810;8.872;2022-11-20T13:53:29;96018.84;;;6.74;74.20
3697;BME280;60662;48.810;8.872;2022-11-20T13:55:54;95994.94;;;6.65;74.68
3697;BME280;60662;48.810;8.872;2022-11-20T14:00:25;96012.63;;;6.56;75.13
3697;BME280;60662;48.810;8.872;2022-11-20T14:01:30;96012.97;;;6.46;74.86
3697;BME280;60662;48.810;8.872;2022-11-20T14:02:35;96007.47;;;6.32;74.80
3697;BME280;60662;48.810;8.872;2022-11-20T14:03:37;96009.31;;;6.28;74.56
3697;BME280;60662;48.810;8.872;2022-11-20T14:05:00;96001.75;;;6.22;74.92
3697;BME280;60662;48.810;8.872;2022-11-20T14:06:05;96001.50;;;6.30;75.43
3697;BME280;60662;48.810;8.872;2022-11-20T14:07:06;96000.63;;;6.29;75.37
3697;BME280;60662;48.810;8.872;2022-11-20T14:08:15;96003.28;;;6.28;75.07
3697;BME280;60662;48.810;8.872;2022-11-20T14:09:30;95997.53;;;6.19;73.40
3697;BME280;60662;48.810;8.872;2022-11-20T14:10:36;96003.47;;;6.23;74.16
3697;BME280;60662;48.810;8.872;2022-11-20T14:11:47;96002.69;;;6.21;73.99
3697;BME280;60662;48.810;8.872;2022-11-20T14:12:49;96006.78;;;6.27;74.19
3697;BME280;60662;48.810;8.872;2022-11-20T14:14:55;96001.91;;;6.19;72.65
3697;BME280;60662;48.810;8.872;2022-11-20T14:15:57;96002.91;;;6.15;72.41
3697;BME280;60662;48.810;8.872;2022-11-20T14:17:15;95997.91;;;6.10;72.63
3697;BME280;60662;48.810;8.872;2022-11-20T14:18:22;95988.84;;;5.98;72.87
3697;BME280;60662;48.810;8.872;2022-11-20T14:19:27;95995.38;;;6.09;73.03
3697;BME280;60662;48.810;8.872;2022-11-20T14:20:29;95996.25;;;6.08;72.72
3697;BME280;60662;48.810;8.872;2022-11-20T14:21:32;95983.38;;;6.06;73.20
3697;BME280;60662;48.810;8.872;2022-11-20T14:22:33;95994.50;;;6.08;73.35
3697;BME280;60662;48.810;8.872;2022-11-20T14:23:35;95993.13;;;5.99;73.03
3697;BME280;60662;48.810;8.872;2022-11-20T14:24:37;95998.69;;;6.12;73.60
3697;BME280;60662;48.810;8.872;2022-11-20T14:25:42;96002.91;;;6.15;73.34
3697;BME280;60662;48.810;8.872;2022-11-20T14:26:48;95993.06;;;6.01;72.54
3697;BME280;60662;48.810;8.872;2022-11-20T14:27:55;95988.84;;;5.98;72.16
3697;BME280;60662;48.810;8.872;2022-11-20T14:28:57;95976.41;;;6.07;72.05
3697;BME280;60662;48.810;8.872;2022-11-20T14:30:00;95988.13;;;6.63;70.67
3697;BME280;60662;48.810;8.872;2022-11-20T14:31:02;95996.69;;;6.87;68.91
3697;BME280;60662;48.810;8.872;2022-11-20T14:32:04;95978.13;;;6.96;68.51
3697;BME280;60662;48.810;8.872;2022-11-20T14:33:06;95994.03;;;7.09;68.60
3697;BME280;60662;48.810;8.872;2022-11-20T14:34:15;95990.28;;;6.74;69.18
3697;BME280;60662;48.810;8.872;2022-11-20T14:35:24;95985.34;;;6.67;69.72
3697;BME280;60662;48.810;8.872;2022-11-20T14:36:27;95999.81;;;6.51;70.20
3697;BME280;60662;48.810;8.872;2022-11-20T14:37:36;95983.28;;;6.31;70.81
3697;BME280;60662;48.810;8.872;2022-11-20T14:38:37;95994.78;;;6.24;70.95
3697;BME280;60662;48.810;8.872;2022-11-20T14:39:48;95990.72;;;6.17;71.14
3697;BME280;60662;48.810;8.872;2022-11-20T14:40:50;95981.50;;;6.10;71.83
3697;BME280;60662;48.810;8.872;2022-11-20T14:41:52;95976.41;;;6.07;71.69
3697;BME280;60662;48.810;8.872;2022-11-20T14:42:55;95945.06;;;5.89;71.87
3697;BME280;60662;48.810;8.872;2022-11-20T14:43:57;95987.53;;;6.10;71.91
3697;BME280;60662;48.810;8.872;2022-11-20T14:45:00;95969.38;;;6.10;72.55
3697;BME280;60662;48.810;8.872;2022-11-20T14:46:05;95972.03;;;6.09;72.08
3697;BME280;60662;48.810;8.872;2022-11-20T14:47:11;95979.00;;;6.07;72.13
3697;BME280;60662;48.810;8.872;2022-11-20T14:48:14;95952.75;;;5.92;72.52
3697;BME280;60662;48.810;8.872;2022-11-20T14:49:16;95968.16;;;5.95;72.91
3697;BME280;60662;48.810;8.872;2022-11-20T14:50:22;95976.06;;;5.92;73.04
3697;BME280;60662;48.810;8.872;2022-11-20T14:51:32;95966.03;;;5.83;73.28
3697;BME280;60662;48.810;8.872;2022-11-20T14:52:34;95972.19;;;5.80;73.28
3697;BME280;60662;48.810;8.872;2022-11-20T14:53:35;95959.22;;;5.80;73.48
3697;BME280;60662;48.810;8.872;2022-11-20T14:54:45;95964.28;;;5.83;73.99
3697;BME280;60662;48.810;8.872;2022-11-20T14:55:54;95952.06;;;5.87;73.78
3697;BME280;60662;48.810;8.872;2022-11-20T14:57:02;95936.88;;;5.78;73.96
3697;BME280;60662;48.810;8.872;2022-11-20T14:58:21;95954.00;;;5.82;73.96
3697;BME280;60662;48.810;8.872;2022-11-20T14:59:31;95938.22;;;5.64;74.40
3697;BME280;60662;48.810;8.872;2022-11-20T15:00:34;95948.63;;;5.63;74.63
3697;BME280;60662;48.810;8.872;2022-11-20T15:01:36;95950.28;;;5.65;74.80
3697;BME280;60662;48.810;8.872;2022-11-20T15:02:41;95957.34;;;5.60;75.26
3697;BME280;60662;48.810;8.872;2022-11-20T15:03:43;95949.91;;;5.51;74.84
3697;BME280;60662;48.810;8.872;2022-11-20T15:04:56;95948.31;;;5.47;75.45
3697;BME280;60662;48.810;8.872;2022-11-20T15:06:00;95943.28;;;5.44;75.32
3697;BME280;60662;48.810;8.872;2022-11-20T15:07:02;95916.25;;;5.26;76.03
3697;BME280;60662;48.810;8.872;2022-11-20T15:08:08;95942.63;;;5.37;76.14
3697;BME280;60662;48.810;8.872;2022-11-20T15:09:14;95939.13;;;5.38;76.07
3697;BME280;60662;48.810;8.872;2022-11-20T15:11:26;95936.72;;;5.33;76.32
3697;BME280;60662;48.810;8.872;2022-11-20T15:12:34;95934.28;;;5.29;75.90
3697;BME280;60662;48.810;8.872;2022-11-20T15:13:38;95930.97;;;5.25;76.27
3697;BME280;60662;48.810;8.872;2022-11-20T15:14:40;95934.56;;;5.21;76.60
3697;BME280;60662;48.810;8.872;2022-11-20T15:15:51;95931.16;;;5.19;76.68
3697;BME280;60662;48.810;8.872;2022-11-20T15:16:53;95926.31;;;5.10;77.13
3697;BME280;60662;48.810;8.872;2022-11-20T15:17:55;95895.88;;;4.91;77.13
3697;BME280;60662;48.810;8.872;2022-11-20T15:18:57;95933.97;;;5.13;77.07
3697;BME280;60662;48.810;8.872;2022-11-20T15:19:59;95927.28;;;5.07;77.33
3697;BME280;60662;48.810;8.872;2022-11-20T15:21:04;95943.63;;;5.07;77.17
3697;BME280;60662;48.810;8.872;2022-11-20T15:22:12;95936.13;;;5.00;78.06
3697;BME280;60662;48.810;8.872;2022-11-20T15:23:20;95942.00;;;5.05;77.49
3697;BME280;60662;48.810;8.872;2022-11-20T15:24:21;95939.59;;;5.00;77.63
3697;BME280;60662;48.810;8.872;2022-11-20T15:25:26;95899.06;;;4.74;77.58
3697;BME280;60662;48.810;8.872;2022-11-20T15:26:29;95937.94;;;4.98;77.71
3697;BME280;60662;48.810;8.872;2022-11-20T15:27:30;95945.72;;;4.98;77.90
3697;BME280;60662;48.810;8.872;2022-11-20T15:28:45;95938.03;;;4.95;78.02
3697;BME280;60662;48.810;8.872;2022-11-20T15:29:51;95937.22;;;4.93;78.26
